createdAt,value
2023-05-01T00:04:25.445Z,14.33
2023-05-01T00:09:30.255Z,13.88
2023-05-01T00:14:32.052Z,13.81
2023-05-01T00:19:33.703Z,14.48
2023-05-01T00:24:35.413Z,15.27
2023-05-01T00:29:37.073Z,13.40
2023-05-01T00:34:38.688Z,14.21
2023-05-01T00:39:40.545Z,15.49
2023-05-01T00:44:42.213Z,13.49
2023-05-01T00:55:10.990Z,13.50
2023-05-01T01:06:18.699Z,14.45
2023-05-01T01:11:50.702Z,13.47
2023-05-01T01:17:04.668Z,12.47
2023-05-01T01:22:13.709Z,13.26
2023-05-01T01:27:40.714Z,12.39
2023-05-01T01:33:22.673Z,12.11
2023-05-01T01:38:34.720Z,11.45
2023-05-01T01:43:44.739Z,12.38
2023-05-01T01:48:50.797Z,11.83
2023-05-01T01:53:57.730Z,11.99
2023-05-01T01:59:02.882Z,11.78
2023-05-01T02:04:05.754Z,11.97
2023-05-01T02:09:10.779Z,11.87
2023-05-01T02:14:15.774Z,11.52
2023-05-01T02:19:18.776Z,11.98
2023-05-01T02:24:24.792Z,11.15
2023-05-01T02:29:27.787Z,11.63
2023-05-01T02:34:29.785Z,11.22
2023-05-01T02:39:32.804Z,11.08
2023-05-01T02:44:42.862Z,11.85
2023-05-01T02:49:47.832Z,12.23
2023-05-01T02:54:49.830Z,11.18
2023-05-01T02:59:51.841Z,11.30
2023-05-01T03:04:53.846Z,11.05
2023-05-01T03:09:56.093Z,10.65
2023-05-01T03:14:58.851Z,11.82
2023-05-01T03:20:00.920Z,11.77
2023-05-01T03:25:04.857Z,11.62
2023-05-01T03:35:33.914Z,11.20
2023-05-01T03:40:35.801Z,12.46
2023-05-01T03:45:37.868Z,11.75
2023-05-01T03:50:39.854Z,12.18
2023-05-01T03:55:41.893Z,11.64
2023-05-01T04:00:43.887Z,11.75
2023-05-01T04:05:45.950Z,11.37
2023-05-01T04:10:47.919Z,11.19
2023-05-01T04:15:49.704Z,11.69
2023-05-01T04:20:52.287Z,12.09
2023-05-01T04:25:54.928Z,12.05
2023-05-01T04:30:57.824Z,12.37
2023-05-01T04:35:59.906Z,11.62
2023-05-01T04:41:01.508Z,11.58
2023-05-01T04:46:04.830Z,11.40
2023-05-01T04:51:07.341Z,11.75
2023-05-01T04:56:09.954Z,12.11
2023-05-01T05:01:12.080Z,12.30
2023-05-01T05:06:13.998Z,12.65
2023-05-01T05:11:16.358Z,12.46
2023-05-01T05:16:18.979Z,12.08
2023-05-01T05:21:20.988Z,12.36
2023-05-01T05:26:23.008Z,11.54
2023-05-01T05:31:25.922Z,12.86
2023-05-01T05:36:28.810Z,14.02
2023-05-01T05:41:31.015Z,12.50
2023-05-01T05:46:33.147Z,13.23
2023-05-01T05:51:35.066Z,13.01
2023-05-01T05:56:37.052Z,13.26
2023-05-01T06:01:41.033Z,13.16
2023-05-01T06:06:43.188Z,14.45
2023-05-01T06:11:46.076Z,13.27
2023-05-01T06:16:48.084Z,14.31
2023-05-01T06:21:50.175Z,14.24
2023-05-01T06:26:52.066Z,14.11
2023-05-01T06:31:54.272Z,14.35
2023-05-01T06:36:56.107Z,15.87
2023-05-01T06:41:58.123Z,14.69
2023-05-01T06:47:02.202Z,15.48
2023-05-01T06:52:04.101Z,15.35
2023-05-01T06:57:06.125Z,15.17
2023-05-01T07:02:08.147Z,15.20
2023-05-01T07:07:11.123Z,15.76
2023-05-01T07:12:13.124Z,16.32
2023-05-01T07:17:15.138Z,15.59
2023-05-01T07:22:17.174Z,16.70
2023-05-01T07:27:19.176Z,17.13
2023-05-01T07:32:21.381Z,16.89
2023-05-01T07:37:24.139Z,17.10
2023-05-01T07:42:30.201Z,15.86
2023-05-01T07:47:32.226Z,14.90
2023-05-01T07:52:34.179Z,17.56
2023-05-01T07:57:36.260Z,17.90
2023-05-01T08:02:38.311Z,17.48
2023-05-01T08:07:40.049Z,16.21
2023-05-01T08:12:42.378Z,16.72
2023-05-01T08:17:44.253Z,16.46
2023-05-01T08:22:46.199Z,15.26
2023-05-01T08:27:50.248Z,16.79
2023-05-01T08:32:52.411Z,17.92
2023-05-01T08:37:55.236Z,16.79
2023-05-01T08:42:57.237Z,16.96
2023-05-01T08:48:02.414Z,17.25
2023-05-01T08:53:06.280Z,17.46
2023-05-01T08:58:10.250Z,17.11
2023-05-01T09:03:14.728Z,17.63
2023-05-01T09:08:17.272Z,16.16
2023-05-01T09:13:20.270Z,16.87
2023-05-01T09:18:22.279Z,17.33
2023-05-01T09:23:24.288Z,16.85
2023-05-01T09:28:42.325Z,16.64
2023-05-01T09:40:04.705Z,16.81
2023-05-01T09:45:16.336Z,17.32
2023-05-01T09:50:40.367Z,16.40
2023-05-01T09:55:42.311Z,17.85
2023-05-01T10:00:50.333Z,17.25
2023-05-01T10:05:52.345Z,18.18
2023-05-01T10:11:03.469Z,18.41
2023-05-01T10:16:08.371Z,18.31
2023-05-01T10:21:11.440Z,18.83
2023-05-01T10:26:14.109Z,18.10
2023-05-01T10:31:17.076Z,17.85
2023-05-01T10:36:45.576Z,18.61
2023-05-01T10:42:06.626Z,20.94
2023-05-01T10:47:31.388Z,19.53
2023-05-01T10:53:10.000Z,18.90
2023-05-01T10:58:37.191Z,17.53
2023-05-01T11:06:31.590Z,16.88
2023-05-01T11:11:33.303Z,17.07
2023-05-01T11:16:38.184Z,16.11
2023-05-01T11:21:40.708Z,16.77
2023-05-01T11:26:43.107Z,18.21
2023-05-01T11:31:48.499Z,17.03
2023-05-01T11:36:51.901Z,18.23
2023-05-01T11:42:09.543Z,17.06
2023-05-01T11:47:11.256Z,18.62
2023-05-01T11:52:12.865Z,18.43
2023-05-01T11:57:14.449Z,17.54
2023-05-01T12:02:22.526Z,18.06
2023-05-01T12:07:24.538Z,18.98
2023-05-01T12:12:26.452Z,17.51
2023-05-01T12:17:30.216Z,19.14
2023-05-01T12:22:31.960Z,17.92
2023-05-01T12:27:45.641Z,18.26
2023-05-01T12:32:47.235Z,18.00
2023-05-01T12:37:49.032Z,17.60
2023-05-01T12:42:58.144Z,18.79
2023-05-01T12:47:59.942Z,20.76
2023-05-01T12:53:05.158Z,19.28
2023-05-01T12:58:06.815Z,18.80
2023-05-01T13:03:08.563Z,18.18
2023-05-01T13:08:10.195Z,19.89
2023-05-01T13:13:11.797Z,20.11
2023-05-01T13:18:13.510Z,19.85
2023-05-01T13:23:15.558Z,19.47
2023-05-01T13:28:19.685Z,20.27
2023-05-01T13:33:21.628Z,20.73
2023-05-01T13:38:25.080Z,19.99
2023-05-01T13:43:27.842Z,20.58
2023-05-01T13:48:31.672Z,21.11
2023-05-01T13:53:33.285Z,19.06
2023-05-01T13:58:35.242Z,19.56
2023-05-01T14:03:42.015Z,18.20
2023-05-01T14:08:44.725Z,17.45
2023-05-01T14:13:47.746Z,16.49
2023-05-01T14:18:49.507Z,13.46
2023-05-01T14:23:55.130Z,17.20
2023-05-01T14:28:56.659Z,17.86
2023-05-01T14:34:03.883Z,17.26
2023-05-01T14:39:05.537Z,18.46
2023-05-01T14:44:10.709Z,18.27
2023-05-01T14:49:18.590Z,17.57
2023-05-01T14:54:21.237Z,16.98
2023-05-01T15:05:30.052Z,14.31
2023-05-01T15:10:32.395Z,15.28
2023-05-01T15:15:34.010Z,15.98
2023-05-01T15:20:35.861Z,15.32
2023-05-01T15:25:37.525Z,16.04
2023-05-01T15:30:39.131Z,16.72
2023-05-01T15:35:40.872Z,15.63
2023-05-01T15:40:43.423Z,16.15
2023-05-01T15:45:45.261Z,16.84
2023-05-01T15:50:49.001Z,16.84
2023-05-01T15:55:51.643Z,16.63
2023-05-01T16:00:53.442Z,15.34
2023-05-01T16:05:56.218Z,15.67
2023-05-01T16:10:58.254Z,14.42
2023-05-01T16:16:02.157Z,15.54
2023-05-01T16:21:03.898Z,13.25
2023-05-01T16:26:06.174Z,13.69
2023-05-01T16:31:25.760Z,15.70
2023-05-01T16:36:29.110Z,18.10
2023-05-01T16:41:30.787Z,17.37
2023-05-01T16:46:33.584Z,18.04
2023-05-01T16:51:35.409Z,17.83
2023-05-01T16:56:37.279Z,16.79
2023-05-01T17:01:38.893Z,16.91
2023-05-01T17:06:40.708Z,16.90
2023-05-01T17:11:43.141Z,16.01
2023-05-01T17:16:45.865Z,16.20
2023-05-01T17:21:48.876Z,16.76
2023-05-01T17:26:50.561Z,15.49
2023-05-01T17:31:52.230Z,16.25
2023-05-01T17:36:55.834Z,18.32
2023-05-01T17:41:58.756Z,17.85
2023-05-01T17:47:00.964Z,16.29
2023-05-01T17:52:02.542Z,17.73
2023-05-01T17:57:04.164Z,17.87
2023-05-01T18:02:06.126Z,14.28
2023-05-01T18:07:07.687Z,15.53
2023-05-01T18:12:10.249Z,16.57
2023-05-01T18:17:11.970Z,16.25
2023-05-01T18:22:13.761Z,15.14
2023-05-01T18:27:15.337Z,14.68
2023-05-01T18:32:17.388Z,15.48
2023-05-01T18:37:18.993Z,15.46
2023-05-01T18:42:20.540Z,16.42
2023-05-01T18:47:22.128Z,17.29
2023-05-01T18:52:23.729Z,16.25
2023-05-01T18:57:25.414Z,15.84
2023-05-01T19:02:27.098Z,15.43
2023-05-01T19:07:29.155Z,16.94
2023-05-01T19:12:30.804Z,15.61
2023-05-01T19:17:33.338Z,16.09
2023-05-01T19:22:35.011Z,15.71
2023-05-01T19:27:36.582Z,16.26
2023-05-01T19:32:38.515Z,14.93
2023-05-01T19:37:40.169Z,16.13
2023-05-01T19:42:41.730Z,17.41
2023-05-01T19:47:43.620Z,16.06
2023-05-01T19:52:45.252Z,16.27
2023-05-01T19:57:46.821Z,17.04
2023-05-01T20:02:48.648Z,15.68
2023-05-01T20:07:50.292Z,15.84
2023-05-01T20:12:52.242Z,16.53
2023-05-01T20:17:53.866Z,16.20
2023-05-01T20:23:09.886Z,17.22
2023-05-01T20:28:13.004Z,15.72
2023-05-01T20:33:15.118Z,16.94
2023-05-01T20:38:17.096Z,15.59
2023-05-01T20:43:18.716Z,15.09
2023-05-01T20:48:20.635Z,14.68
2023-05-01T20:53:22.246Z,16.27
2023-05-01T20:58:23.888Z,17.07
2023-05-01T21:03:25.621Z,14.68
2023-05-01T21:08:27.950Z,16.00
2023-05-01T21:13:31.578Z,16.98
2023-05-01T21:18:34.149Z,16.08
2023-05-01T21:23:36.267Z,14.25
2023-05-01T21:28:39.034Z,14.16
2023-05-01T21:33:45.760Z,15.08
2023-05-01T21:38:47.610Z,15.14
2023-05-01T21:43:49.305Z,16.63
2023-05-01T21:48:54.033Z,16.65
2023-05-01T21:53:55.937Z,16.36
2023-05-01T21:59:02.399Z,15.16
2023-05-01T22:04:04.278Z,17.23
2023-05-01T22:09:06.095Z,16.00
2023-05-01T22:14:07.866Z,16.88
2023-05-01T22:19:09.741Z,15.93
2023-05-01T22:24:11.645Z,16.27
2023-05-01T22:29:13.397Z,16.49
2023-05-01T22:34:15.244Z,15.05
2023-05-01T22:39:17.053Z,15.18
2023-05-01T22:44:21.014Z,14.57
2023-05-01T22:49:24.239Z,15.33
2023-05-01T22:54:26.060Z,15.31
2023-05-01T22:59:27.702Z,16.20
2023-05-01T23:04:29.388Z,16.93
2023-05-01T23:09:32.221Z,17.05
2023-05-01T23:14:41.807Z,16.92
2023-05-01T23:19:43.778Z,16.98
2023-05-01T23:24:48.601Z,16.92
2023-05-01T23:29:57.566Z,16.93
2023-05-01T23:35:09.734Z,15.93
2023-05-01T23:40:11.662Z,15.87
2023-05-01T23:45:13.559Z,16.31
2023-05-01T23:50:15.254Z,16.98
2023-05-01T23:55:16.942Z,16.38
